Amherstburg, Canada
Current Conditions -  °F | °C
As of 6:34 AM on Tuesday 21 Oct 2014 (Local Time) from KONZ Reporting Station
Overcast Overcast  
Wind Chill: 43°   Ceiling: 4700
Heat Index: 48°   Visibility: 10mi
Dew Point: 45°   Wind: 12mph
Humidity: 87%   Direction: 320°NW
Pressure: 29.91"   Gusts: 16mph
Location:  42.1°N, 83.11°W
Report Text: KONZ 211034Z AUTO 32010G14KT 10SM BKN047 OVC060 09/07 A2991 RMK AO2
Loading
Personal Weather Stations






























Interactive Weather Map
Tropical Storm Tracking
New forecast layout! Learn more

10-Day Weather Forecast

Advertisements
Track Severe Weather on mobile